sensor_id;sensor_type;location;lat;lon;timestamp;pressure;altitude;pressure_sealevel;temperature;humidity
18500;BME280;9379;52.134;11.576;2023-02-20T00:00:48;101632.59;;;6.75;90.63
18500;BME280;9379;52.134;11.576;2023-02-20T00:03:15;101625.94;;;6.67;91.31
18500;BME280;9379;52.134;11.576;2023-02-20T00:05:42;101601.50;;;6.64;91.77
18500;BME280;9379;52.134;11.576;2023-02-20T00:08:09;101601.38;;;6.81;91.49
18500;BME280;9379;52.134;11.576;2023-02-20T00:10:36;101602.84;;;6.87;91.62
18500;BME280;9379;52.134;11.576;2023-02-20T00:13:03;101601.28;;;6.83;90.73
18500;BME280;9379;52.134;11.576;2023-02-20T00:15:31;101604.50;;;7.03;90.77
18500;BME280;9379;52.134;11.576;2023-02-20T00:17:58;101601.06;;;6.71;92.33
18500;BME280;9379;52.134;11.576;2023-02-20T00:20:25;101599.72;;;6.49;93.73
18500;BME280;9379;52.134;11.576;2023-02-20T00:22:54;101595.91;;;7.00;91.85
18500;BME280;9379;52.134;11.576;2023-02-20T00:25:21;101594.41;;;6.96;91.81
18500;BME280;9379;52.134;11.576;2023-02-20T00:27:48;101591.31;;;7.34;90.60
18500;BME280;9379;52.134;11.576;2023-02-20T00:30:17;101595.63;;;7.20;91.17
18500;BME280;9379;52.134;11.576;2023-02-20T00:32:47;101602.09;;;7.45;89.69
18500;BME280;9379;52.134;11.576;2023-02-20T00:35:14;101597.31;;;7.21;91.31
18500;BME280;9379;52.134;11.576;2023-02-20T00:37:41;101584.72;;;7.11;91.25
18500;BME280;9379;52.134;11.576;2023-02-20T00:40:09;101590.56;;;7.31;90.24
18500;BME280;9379;52.134;11.576;2023-02-20T00:42:36;101577.25;;;6.87;92.14
18500;BME280;9379;52.134;11.576;2023-02-20T00:45:03;101567.72;;;6.69;93.73
18500;BME280;9379;52.134;11.576;2023-02-20T00:47:30;101555.56;;;6.51;94.45
18500;BME280;9379;52.134;11.576;2023-02-20T00:49:58;101560.88;;;6.96;92.95
18500;BME280;9379;52.134;11.576;2023-02-20T00:52:25;101562.81;;;7.09;92.18
18500;BME280;9379;52.134;11.576;2023-02-20T00:54:52;101552.19;;;7.24;91.18
18500;BME280;9379;52.134;11.576;2023-02-20T00:57:19;101555.44;;;7.29;90.50
18500;BME280;9379;52.134;11.576;2023-02-20T00:59:46;101555.69;;;7.39;90.91
18500;BME280;9379;52.134;11.576;2023-02-20T01:02:12;101559.28;;;7.38;90.37
18500;BME280;9379;52.134;11.576;2023-02-20T01:04:39;101564.97;;;7.32;90.99
18500;BME280;9379;52.134;11.576;2023-02-20T01:07:07;101548.78;;;7.67;89.75
18500;BME280;9379;52.134;11.576;2023-02-20T01:09:34;101545.09;;;7.69;89.54
18500;BME280;9379;52.134;11.576;2023-02-20T01:12:01;101551.34;;;7.24;91.27
18500;BME280;9379;52.134;11.576;2023-02-20T01:14:27;101542.66;;;7.22;91.53
18500;BME280;9379;52.134;11.576;2023-02-20T01:16:54;101543.38;;;6.94;92.36
18500;BME280;9379;52.134;11.576;2023-02-20T01:19:22;101518.75;;;7.23;92.00
18500;BME280;9379;52.134;11.576;2023-02-20T01:21:49;101544.19;;;7.40;91.58
18500;BME280;9379;52.134;11.576;2023-02-20T01:24:18;101533.00;;;6.91;92.92
18500;BME280;9379;52.134;11.576;2023-02-20T01:26:46;101534.63;;;7.38;91.76
18500;BME280;9379;52.134;11.576;2023-02-20T01:29:14;101530.94;;;7.26;91.81
18500;BME280;9379;52.134;11.576;2023-02-20T01:31:46;101519.69;;;7.08;93.61
18500;BME280;9379;52.134;11.576;2023-02-20T01:34:13;101529.31;;;6.93;94.46
18500;BME280;9379;52.134;11.576;2023-02-20T01:36:44;101525.22;;;7.62;91.61
18500;BME280;9379;52.134;11.576;2023-02-20T01:39:11;101495.47;;;7.73;91.62
18500;BME280;9379;52.134;11.576;2023-02-20T01:41:39;101507.00;;;8.00;90.61
18500;BME280;9379;52.134;11.576;2023-02-20T01:44:15;101496.59;;;7.69;92.94
18500;BME280;9379;52.134;11.576;2023-02-20T01:46:51;101479.28;;;7.63;93.75
18500;BME280;9379;52.134;11.576;2023-02-20T01:49:26;101485.34;;;7.94;93.39
18500;BME280;9379;52.134;11.576;2023-02-20T01:51:59;101479.91;;;8.09;92.55
18500;BME280;9379;52.134;11.576;2023-02-20T01:54:29;101468.66;;;8.34;92.10
18500;BME280;9379;52.134;11.576;2023-02-20T01:57:00;101462.81;;;8.42;91.54
18500;BME280;9379;52.134;11.576;2023-02-20T01:59:31;101457.00;;;8.37;91.99
18500;BME280;9379;52.134;11.576;2023-02-20T02:02:01;101455.53;;;8.31;92.40
18500;BME280;9379;52.134;11.576;2023-02-20T02:04:28;101420.41;;;7.88;94.01
18500;BME280;9379;52.134;11.576;2023-02-20T02:06:55;101443.75;;;8.37;92.43
18500;BME280;9379;52.134;11.576;2023-02-20T02:09:30;101446.13;;;8.27;92.80
18500;BME280;9379;52.134;11.576;2023-02-20T02:12:00;101433.47;;;8.18;93.33
18500;BME280;9379;52.134;11.576;2023-02-20T02:14:27;101436.53;;;8.39;92.97
18500;BME280;9379;52.134;11.576;2023-02-20T02:17:08;101433.50;;;8.31;93.44
18500;BME280;9379;52.134;11.576;2023-02-20T02:20:25;101430.69;;;8.34;92.97
18500;BME280;9379;52.134;11.576;2023-02-20T02:25:59;101416.66;;;8.32;93.61
18500;BME280;9379;52.134;11.576;2023-02-20T02:28:54;101424.88;;;8.14;94.61
18500;BME280;9379;52.134;11.576;2023-02-20T02:37:33;101392.00;;;8.04;94.65
18500;BME280;9379;52.134;11.576;2023-02-20T02:40:12;101401.59;;;8.19;94.70
18500;BME280;9379;52.134;11.576;2023-02-20T02:42:49;101389.28;;;8.18;94.74
18500;BME280;9379;52.134;11.576;2023-02-20T02:45:27;101389.34;;;8.31;94.70
18500;BME280;9379;52.134;11.576;2023-02-20T02:48:00;101390.25;;;8.17;94.50
18500;BME280;9379;52.134;11.576;2023-02-20T02:50:31;101351.97;;;8.09;94.49
18500;BME280;9379;52.134;11.576;2023-02-20T02:53:02;101368.47;;;8.27;94.63
18500;BME280;9379;52.134;11.576;2023-02-20T02:55:31;101371.59;;;8.19;94.56
18500;BME280;9379;52.134;11.576;2023-02-20T02:57:59;101376.38;;;8.54;93.83
18500;BME280;9379;52.134;11.576;2023-02-20T03:00:29;101373.66;;;8.28;93.79
18500;BME280;9379;52.134;11.576;2023-02-20T03:03:05;101379.97;;;8.40;93.58
18500;BME280;9379;52.134;11.576;2023-02-20T03:05:37;101375.63;;;8.39;93.32
18500;BME280;9379;52.134;11.576;2023-02-20T03:08:17;101384.47;;;8.25;93.57
18500;BME280;9379;52.134;11.576;2023-02-20T03:10:57;101371.81;;;8.43;93.62
18500;BME280;9379;52.134;11.576;2023-02-20T03:13:39;101366.72;;;8.40;92.66
18500;BME280;9379;52.134;11.576;2023-02-20T03:16:27;101383.41;;;8.28;92.61
18500;BME280;9379;52.134;11.576;2023-02-20T03:19:00;101374.25;;;8.19;92.80
18500;BME280;9379;52.134;11.576;2023-02-20T03:21:30;101375.34;;;8.56;91.60
18500;BME280;9379;52.134;11.576;2023-02-20T03:24:00;101366.94;;;8.37;91.36
18500;BME280;9379;52.134;11.576;2023-02-20T03:26:32;101370.47;;;8.50;91.23
18500;BME280;9379;52.134;11.576;2023-02-20T03:29:02;101368.56;;;8.52;90.99
18500;BME280;9379;52.134;11.576;2023-02-20T03:31:32;101361.25;;;8.29;91.55
18500;BME280;9379;52.134;11.576;2023-02-20T03:34:05;101348.59;;;8.34;90.79
18500;BME280;9379;52.134;11.576;2023-02-20T03:36:56;101374.06;;;8.22;91.03
18500;BME280;9379;52.134;11.576;2023-02-20T03:39:47;101389.97;;;8.49;89.67
18500;BME280;9379;52.134;11.576;2023-02-20T03:42:35;101387.81;;;8.41;89.55
18500;BME280;9379;52.134;11.576;2023-02-20T03:45:22;101398.53;;;8.53;89.26
18500;BME280;9379;52.134;11.576;2023-02-20T03:47:55;101399.03;;;8.45;89.10
18500;BME280;9379;52.134;11.576;2023-02-20T03:50:24;101390.38;;;8.56;88.86
18500;BME280;9379;52.134;11.576;2023-02-20T03:52:51;101384.94;;;8.44;88.64
18500;BME280;9379;52.134;11.576;2023-02-20T03:55:19;101384.56;;;8.51;88.83
18500;BME280;9379;52.134;11.576;2023-02-20T03:57:49;101372.66;;;8.43;88.67
18500;BME280;9379;52.134;11.576;2023-02-20T04:00:20;101373.22;;;8.48;88.89
18500;BME280;9379;52.134;11.576;2023-02-20T04:02:50;101365.88;;;8.39;88.99
18500;BME280;9379;52.134;11.576;2023-02-20T04:05:21;101365.63;;;8.57;88.08
18500;BME280;9379;52.134;11.576;2023-02-20T04:07:52;101359.03;;;8.62;88.03
18500;BME280;9379;52.134;11.576;2023-02-20T04:10:25;101356.88;;;8.55;88.27
18500;BME280;9379;52.134;11.576;2023-02-20T04:12:55;101332.13;;;8.29;88.56
18500;BME280;9379;52.134;11.576;2023-02-20T04:15:24;101357.53;;;8.45;88.29
18500;BME280;9379;52.134;11.576;2023-02-20T04:17:55;101340.47;;;8.50;88.11
18500;BME280;9379;52.134;11.576;2023-02-20T04:20:24;101342.41;;;8.60;87.69
18500;BME280;9379;52.134;11.576;2023-02-20T04:22:54;101341.53;;;8.60;87.45
18500;BME280;9379;52.134;11.576;2023-02-20T04:25:29;101330.00;;;8.61;87.51
18500;BME280;9379;52.134;11.576;2023-02-20T04:28:00;101317.72;;;8.72;87.15
18500;BME280;9379;52.134;11.576;2023-02-20T04:30:27;101309.75;;;8.60;87.25
18500;BME280;9379;52.134;11.576;2023-02-20T04:32:54;101315.66;;;8.38;87.39
18500;BME280;9379;52.134;11.576;2023-02-20T04:35:21;101320.88;;;8.77;86.59
18500;BME280;9379;52.134;11.576;2023-02-20T04:37:48;101319.50;;;8.72;86.03
18500;BME280;9379;52.134;11.576;2023-02-20T04:40:17;101306.16;;;8.73;86.09
18500;BME280;9379;52.134;11.576;2023-02-20T04:42:46;101283.34;;;8.84;85.95
18500;BME280;9379;52.134;11.576;2023-02-20T04:45:12;101283.88;;;8.63;86.43
18500;BME280;9379;52.134;11.576;2023-02-20T04:47:39;101276.56;;;8.80;85.88
18500;BME280;9379;52.134;11.576;2023-02-20T04:50:06;101271.47;;;8.76;86.50
18500;BME280;9379;52.134;11.576;2023-02-20T04:52:33;101269.47;;;8.67;85.99
18500;BME280;9379;52.134;11.576;2023-02-20T04:55:00;101261.94;;;8.61;86.45
18500;BME280;9379;52.134;11.576;2023-02-20T04:57:26;101253.78;;;8.77;85.51
18500;BME280;9379;52.134;11.576;2023-02-20T04:59:55;101242.22;;;8.53;86.42
18500;BME280;9379;52.134;11.576;2023-02-20T05:02:21;101243.91;;;8.79;86.21
18500;BME280;9379;52.134;11.576;2023-02-20T05:04:49;101261.09;;;8.61;86.25
18500;BME280;9379;52.134;11.576;2023-02-20T05:07:16;101261.72;;;8.64;86.18
18500;BME280;9379;52.134;11.576;2023-02-20T05:09:43;101267.25;;;8.74;85.51
18500;BME280;9379;52.134;11.576;2023-02-20T05:12:10;101251.56;;;8.71;85.35
18500;BME280;9379;52.134;11.576;2023-02-20T05:14:37;101257.50;;;8.62;85.97
18500;BME280;9379;52.134;11.576;2023-02-20T05:17:05;101248.56;;;8.88;85.40
18500;BME280;9379;52.134;11.576;2023-02-20T05:19:31;101232.06;;;8.72;85.71
18500;BME280;9379;52.134;11.576;2023-02-20T05:21:58;101231.09;;;8.73;85.57
18500;BME280;9379;52.134;11.576;2023-02-20T05:24:42;101219.44;;;8.63;85.44
18500;BME280;9379;52.134;11.576;2023-02-20T05:27:09;101223.47;;;8.56;86.40
18500;BME280;9379;52.134;11.576;2023-02-20T05:29:36;101204.75;;;8.46;85.67
18500;BME280;9379;52.134;11.576;2023-02-20T05:32:04;101198.75;;;8.17;86.34
18500;BME280;9379;52.134;11.576;2023-02-20T05:34:31;101170.91;;;8.11;87.13
18500;BME280;9379;52.134;11.576;2023-02-20T05:36:58;101173.47;;;8.13;86.58
18500;BME280;9379;52.134;11.576;2023-02-20T05:39:24;101198.88;;;8.28;86.25
18500;BME280;9379;52.134;11.576;2023-02-20T05:41:51;101200.03;;;8.11;87.06
18500;BME280;9379;52.134;11.576;2023-02-20T05:44:18;101209.28;;;8.69;84.77
18500;BME280;9379;52.134;11.576;2023-02-20T05:46:45;101211.91;;;8.44;86.03
18500;BME280;9379;52.134;11.576;2023-02-20T05:49:13;101216.91;;;8.48;85.43
18500;BME280;9379;52.134;11.576;2023-02-20T05:51:42;101202.38;;;8.54;85.30
18500;BME280;9379;52.134;11.576;2023-02-20T05:54:09;101195.50;;;8.52;85.25
18500;BME280;9379;52.134;11.576;2023-02-20T05:56:40;101182.47;;;8.48;85.31
18500;BME280;9379;52.134;11.576;2023-02-20T05:59:06;101194.94;;;8.72;84.63
18500;BME280;9379;52.134;11.576;2023-02-20T06:01:33;101196.19;;;8.79;84.02
18500;BME280;9379;52.134;11.576;2023-02-20T06:04:00;101180.78;;;8.47;84.94
18500;BME280;9379;52.134;11.576;2023-02-20T06:06:33;101174.50;;;8.61;84.59
18500;BME280;9379;52.134;11.576;2023-02-20T06:09:00;101163.97;;;8.36;86.33
18500;BME280;9379;52.134;11.576;2023-02-20T06:11:27;101147.16;;;8.61;85.25
18500;BME280;9379;52.134;11.576;2023-02-20T06:13:54;101157.16;;;8.44;86.21
18500;BME280;9379;52.134;11.576;2023-02-20T06:16:22;101144.91;;;8.67;85.95
18500;BME280;9379;52.134;11.576;2023-02-20T06:18:49;101140.25;;;8.71;85.09
18500;BME280;9379;52.134;11.576;2023-02-20T06:21:16;101141.16;;;8.46;86.26
18500;BME280;9379;52.134;11.576;2023-02-20T06:23:44;101145.59;;;8.58;86.88
18500;BME280;9379;52.134;11.576;2023-02-20T06:26:11;101148.34;;;8.44;87.78
18500;BME280;9379;52.134;11.576;2023-02-20T06:28:38;101136.59;;;8.48;86.63
18500;BME280;9379;52.134;11.576;2023-02-20T06:31:05;101125.06;;;8.24;87.29
18500;BME280;9379;52.134;11.576;2023-02-20T06:33:32;101134.91;;;8.47;87.28
18500;BME280;9379;52.134;11.576;2023-02-20T06:35:59;101137.03;;;8.42;87.62
18500;BME280;9379;52.134;11.576;2023-02-20T06:38:26;101138.56;;;8.70;87.12
18500;BME280;9379;52.134;11.576;2023-02-20T06:40:55;101138.78;;;8.67;86.42
18500;BME280;9379;52.134;11.576;2023-02-20T06:43:21;101130.03;;;8.15;88.46
18500;BME280;9379;52.134;11.576;2023-02-20T06:45:49;101139.78;;;8.28;89.13
18500;BME280;9379;52.134;11.576;2023-02-20T06:48:16;101141.16;;;8.08;90.31
18500;BME280;9379;52.134;11.576;2023-02-20T06:50:43;101145.53;;;8.34;89.23
18500;BME280;9379;52.134;11.576;2023-02-20T06:53:09;101146.53;;;7.94;90.25
18500;BME280;9379;52.134;11.576;2023-02-20T06:55:36;101152.16;;;8.27;88.95
18500;BME280;9379;52.134;11.576;2023-02-20T06:58:04;101141.34;;;8.17;89.48
18500;BME280;9379;52.134;11.576;2023-02-20T07:00:31;101138.59;;;8.19;89.24
18500;BME280;9379;52.134;11.576;2023-02-20T07:02:58;101143.50;;;8.00;90.38
18500;BME280;9379;52.134;11.576;2023-02-20T07:05:25;101139.16;;;8.24;88.84
18500;BME280;9379;52.134;11.576;2023-02-20T07:07:51;101138.59;;;8.44;88.51
18500;BME280;9379;52.134;11.576;2023-02-20T07:10:18;101130.88;;;8.29;88.95
18500;BME280;9379;52.134;11.576;2023-02-20T07:12:45;101124.97;;;8.38;88.83
18500;BME280;9379;52.134;11.576;2023-02-20T07:15:13;101117.97;;;8.24;89.74
18500;BME280;9379;52.134;11.576;2023-02-20T07:17:40;101120.41;;;7.89;91.19
18500;BME280;9379;52.134;11.576;2023-02-20T07:20:08;101108.34;;;8.10;90.95
18500;BME280;9379;52.134;11.576;2023-02-20T07:22:35;101103.66;;;8.14;90.28
18500;BME280;9379;52.134;11.576;2023-02-20T07:25:02;101113.19;;;8.29;90.60
18500;BME280;9379;52.134;11.576;2023-02-20T07:27:29;101112.28;;;8.67;89.11
18500;BME280;9379;52.134;11.576;2023-02-20T07:29:56;101098.94;;;8.68;89.56
18500;BME280;9379;52.134;11.576;2023-02-20T07:32:24;101087.28;;;8.95;88.07
18500;BME280;9379;52.134;11.576;2023-02-20T07:34:51;101095.09;;;9.20;86.52
18500;BME280;9379;52.134;11.576;2023-02-20T07:37:18;101098.59;;;9.21;86.33
18500;BME280;9379;52.134;11.576;2023-02-20T07:39:44;101081.31;;;9.39;85.72
18500;BME280;9379;52.134;11.576;2023-02-20T07:42:11;101082.53;;;9.46;84.82
18500;BME280;9379;52.134;11.576;2023-02-20T07:44:38;101090.81;;;9.30;84.72
18500;BME280;9379;52.134;11.576;2023-02-20T07:47:05;101092.00;;;9.61;84.34
18500;BME280;9379;52.134;11.576;2023-02-20T07:49:33;101090.78;;;9.65;83.77
18500;BME280;9379;52.134;11.576;2023-02-20T07:52:00;101100.56;;;9.65;83.70
18500;BME280;9379;52.134;11.576;2023-02-20T07:54:26;101104.41;;;9.72;83.88
18500;BME280;9379;52.134;11.576;2023-02-20T07:56:54;101105.78;;;9.89;83.46
18500;BME280;9379;52.134;11.576;2023-02-20T07:59:21;101101.13;;;9.57;83.68
18500;BME280;9379;52.134;11.576;2023-02-20T08:01:48;101099.63;;;9.88;83.52
18500;BME280;9379;52.134;11.576;2023-02-20T08:04:15;101095.41;;;9.86;83.52
18500;BME280;9379;52.134;11.576;2023-02-20T08:06:43;101096.38;;;9.85;82.82
18500;BME280;9379;52.134;11.576;2023-02-20T08:09:10;101096.44;;;9.61;83.89
18500;BME280;9379;52.134;11.576;2023-02-20T08:11:37;101098.03;;;9.75;83.76
18500;BME280;9379;52.134;11.576;2023-02-20T08:14:04;101095.16;;;9.89;83.54
18500;BME280;9379;52.134;11.576;2023-02-20T08:16:31;101088.44;;;9.96;83.10
18500;BME280;9379;52.134;11.576;2023-02-20T08:18:59;101077.53;;;9.77;83.11
18500;BME280;9379;52.134;11.576;2023-02-20T08:21:26;101077.31;;;10.02;83.52
18500;BME280;9379;52.134;11.576;2023-02-20T08:23:54;101089.13;;;9.87;82.79
18500;BME280;9379;52.134;11.576;2023-02-20T08:26:21;101073.09;;;10.11;82.15
18500;BME280;9379;52.134;11.576;2023-02-20T08:28:49;101079.84;;;10.04;82.44
18500;BME280;9379;52.134;11.576;2023-02-20T08:31:16;101076.09;;;9.95;82.74
18500;BME280;9379;52.134;11.576;2023-02-20T08:33:43;101074.56;;;10.26;82.32
18500;BME280;9379;52.134;11.576;2023-02-20T08:36:09;101071.06;;;10.26;81.97
18500;BME280;9379;52.134;11.576;2023-02-20T08:38:37;101074.28;;;10.18;82.24
18500;BME280;9379;52.134;11.576;2023-02-20T08:41:07;101063.44;;;10.21;81.73
18500;BME280;9379;52.134;11.576;2023-02-20T08:43:36;101076.50;;;10.35;81.49
18500;BME280;9379;52.134;11.576;2023-02-20T08:46:04;101071.91;;;10.37;81.77
18500;BME280;9379;52.134;11.576;2023-02-20T08:48:31;101056.31;;;10.55;81.53
18500;BME280;9379;52.134;11.576;2023-02-20T08:50:58;101057.38;;;10.41;81.58
18500;BME280;9379;52.134;11.576;2023-02-20T08:53:25;101047.28;;;10.35;81.30
18500;BME280;9379;52.134;11.576;2023-02-20T08:55:52;101034.25;;;10.75;79.80
18500;BME280;9379;52.134;11.576;2023-02-20T08:58:21;101019.81;;;10.57;80.24
18500;BME280;9379;52.134;11.576;2023-02-20T09:00:48;101008.34;;;10.57;79.93
18500;BME280;9379;52.134;11.576;2023-02-20T09:03:16;101004.31;;;10.62;80.11
18500;BME280;9379;52.134;11.576;2023-02-20T09:05:43;100988.88;;;10.56;79.41
18500;BME280;9379;52.134;11.576;2023-02-20T09:08:10;101003.00;;;10.68;80.38
18500;BME280;9379;52.134;11.576;2023-02-20T09:10:36;100986.38;;;10.75;80.36
18500;BME280;9379;52.134;11.576;2023-02-20T09:13:03;100989.75;;;10.89;80.08
18500;BME280;9379;52.134;11.576;2023-02-20T09:15:31;100979.59;;;10.82;79.62
18500;BME280;9379;52.134;11.576;2023-02-20T09:18:03;100973.78;;;10.89;78.67
18500;BME280;9379;52.134;11.576;2023-02-20T09:20:31;100971.44;;;11.16;78.12
18500;BME280;9379;52.134;11.576;2023-02-20T09:22:59;100954.50;;;11.17;78.38
18500;BME280;9379;52.134;11.576;2023-02-20T09:25:25;100969.84;;;11.25;78.69
18500;BME280;9379;52.134;11.576;2023-02-20T09:27:52;100962.28;;;11.30;78.27
18500;BME280;9379;52.134;11.576;2023-02-20T09:30:19;100948.94;;;11.20;77.93
18500;BME280;9379;52.134;11.576;2023-02-20T09:32:47;100977.34;;;11.40;77.90
18500;BME280;9379;52.134;11.576;2023-02-20T09:35:17;100986.16;;;11.62;77.61
18500;BME280;9379;52.134;11.576;2023-02-20T09:37:44;100983.28;;;11.54;77.33
18500;BME280;9379;52.134;11.576;2023-02-20T09:40:11;100975.34;;;11.63;77.47
18500;BME280;9379;52.134;11.576;2023-02-20T09:42:45;100987.47;;;11.47;77.39
18500;BME280;9379;52.134;11.576;2023-02-20T09:45:18;100977.91;;;11.44;76.98
18500;BME280;9379;52.134;11.576;2023-02-20T09:47:59;100973.19;;;11.48;77.17
18500;BME280;9379;52.134;11.576;2023-02-20T09:50:34;100966.56;;;11.73;76.97
18500;BME280;9379;52.134;11.576;2023-02-20T09:53:07;100956.97;;;11.81;77.08
18500;BME280;9379;52.134;11.576;2023-02-20T09:55:42;100954.16;;;11.52;76.89
18500;BME280;9379;52.134;11.576;2023-02-20T09:58:19;100957.19;;;11.78;77.50
18500;BME280;9379;52.134;11.576;2023-02-20T10:00:47;100961.34;;;11.61;77.30
18500;BME280;9379;52.134;11.576;2023-02-20T10:03:29;100972.75;;;11.73;77.75
18500;BME280;9379;52.134;11.576;2023-02-20T10:06:00;100971.72;;;11.64;78.01
18500;BME280;9379;52.134;11.576;2023-02-20T10:08:29;100966.81;;;11.60;79.48
18500;BME280;9379;52.134;11.576;2023-02-20T10:11:02;100957.88;;;11.71;78.39
18500;BME280;9379;52.134;11.576;2023-02-20T10:13:41;100958.81;;;11.90;78.71
18500;BME280;9379;52.134;11.576;2023-02-20T10:16:18;100954.91;;;11.94;78.18
18500;BME280;9379;52.134;11.576;2023-02-20T10:18:56;100941.09;;;12.20;78.57
18500;BME280;9379;52.134;11.576;2023-02-20T10:21:36;100939.81;;;12.14;78.73
18500;BME280;9379;52.134;11.576;2023-02-20T10:24:17;100958.22;;;12.17;78.70
18500;BME280;9379;52.134;11.576;2023-02-20T10:26:53;100948.91;;;12.02;78.75
18500;BME280;9379;52.134;11.576;2023-02-20T10:29:25;100935.88;;;12.09;78.96
18500;BME280;9379;52.134;11.576;2023-02-20T10:31:58;100939.09;;;12.12;79.49
18500;BME280;9379;52.134;11.576;2023-02-20T10:34:30;100945.84;;;12.07;79.61
18500;BME280;9379;52.134;11.576;2023-02-20T10:37:02;100942.84;;;11.90;80.31
18500;BME280;9379;52.134;11.576;2023-02-20T10:39:31;100945.41;;;12.11;80.58
18500;BME280;9379;52.134;11.576;2023-02-20T10:42:02;100946.97;;;12.14;80.48
18500;BME280;9379;52.134;11.576;2023-02-20T10:44:36;100939.94;;;12.13;80.74
18500;BME280;9379;52.134;11.576;2023-02-20T10:47:15;100951.59;;;12.12;80.75
18500;BME280;9379;52.134;11.576;2023-02-20T10:49:51;100953.56;;;12.10;81.56
18500;BME280;9379;52.134;11.576;2023-02-20T10:52:25;100969.38;;;12.02;81.24
18500;BME280;9379;52.134;11.576;2023-02-20T10:55:02;100956.72;;;11.84;82.01
18500;BME280;9379;52.134;11.576;2023-02-20T10:57:36;100939.81;;;11.74;82.05
18500;BME280;9379;52.134;11.576;2023-02-20T11:00:09;100958.75;;;12.11;81.94
18500;BME280;9379;52.134;11.576;2023-02-20T11:02:42;100948.66;;;12.15;82.83
18500;BME280;9379;52.134;11.576;2023-02-20T11:05:16;100955.00;;;12.33;81.84
18500;BME280;9379;52.134;11.576;2023-02-20T11:07:43;100950.56;;;11.93;82.67
18500;BME280;9379;52.134;11.576;2023-02-20T11:10:10;100939.81;;;12.05;82.65
18500;BME280;9379;52.134;11.576;2023-02-20T11:12:42;100933.00;;;11.81;82.80
18500;BME280;9379;52.134;11.576;2023-02-20T11:15:13;100943.28;;;11.65;83.00
18500;BME280;9379;52.134;11.576;2023-02-20T11:17:41;100941.44;;;11.86;84.14
18500;BME280;9379;52.134;11.576;2023-02-20T11:20:41;100942.59;;;11.93;83.61
18500;BME280;9379;52.134;11.576;2023-02-20T11:23:32;100932.03;;;11.82;84.18
18500;BME280;9379;52.134;11.576;2023-02-20T11:26:21;100924.38;;;11.68;83.90
18500;BME280;9379;52.134;11.576;2023-02-20T11:28:56;100914.72;;;11.77;84.56
18500;BME280;9379;52.134;11.576;2023-02-20T11:31:24;100911.19;;;11.97;84.03
18500;BME280;9379;52.134;11.576;2023-02-20T11:33:53;100916.53;;;12.07;83.90
18500;BME280;9379;52.134;11.576;2023-02-20T11:36:23;100920.13;;;11.86;84.08
18500;BME280;9379;52.134;11.576;2023-02-20T11:38:56;100904.44;;;11.93;84.15
18500;BME280;9379;52.134;11.576;2023-02-20T11:41:26;100900.56;;;12.07;84.09
18500;BME280;9379;52.134;11.576;2023-02-20T11:44:06;100893.38;;;11.97;83.96
18500;BME280;9379;52.134;11.576;2023-02-20T11:46:33;100885.16;;;11.70;84.44
18500;BME280;9379;52.134;11.576;2023-02-20T11:49:01;100880.34;;;12.14;83.94
18500;BME280;9379;52.134;11.576;2023-02-20T11:51:33;100878.66;;;12.03;84.39
18500;BME280;9379;52.134;11.576;2023-02-20T11:54:09;100888.59;;;11.82;85.55
18500;BME280;9379;52.134;11.576;2023-02-20T11:57:02;100880.63;;;12.11;84.94
18500;BME280;9379;52.134;11.576;2023-02-20T11:59:36;100871.81;;;12.20;85.15
18500;BME280;9379;52.134;11.576;2023-02-20T12:02:23;100864.81;;;12.29;84.41
18500;BME280;9379;52.134;11.576;2023-02-20T12:05:06;100858.22;;;12.42;84.23
18500;BME280;9379;52.134;11.576;2023-02-20T12:07:37;100862.41;;;12.25;84.98
18500;BME280;9379;52.134;11.576;2023-02-20T12:10:30;100864.78;;;12.09;85.58
18500;BME280;9379;52.134;11.576;2023-02-20T12:12:58;100862.97;;;12.10;85.65
18500;BME280;9379;52.134;11.576;2023-02-20T12:15:27;100866.47;;;12.01;86.30
18500;BME280;9379;52.134;11.576;2023-02-20T12:18:21;100870.38;;;11.87;86.76
18500;BME280;9379;52.134;11.576;2023-02-20T12:20:54;100863.22;;;11.87;87.46
18500;BME280;9379;52.134;11.576;2023-02-20T12:23:34;100861.13;;;12.01;87.26
18500;BME280;9379;52.134;11.576;2023-02-20T12:29:06;100851.16;;;12.03;87.80
18500;BME280;9379;52.134;11.576;2023-02-20T12:31:46;100864.34;;;11.85;88.04
18500;BME280;9379;52.134;11.576;2023-02-20T12:34:29;100865.91;;;12.07;87.82
18500;BME280;9379;52.134;11.576;2023-02-20T12:37:04;100869.25;;;11.89;87.95
18500;BME280;9379;52.134;11.576;2023-02-20T12:39:44;100866.03;;;11.95;88.14
18500;BME280;9379;52.134;11.576;2023-02-20T12:42:23;100863.38;;;11.95;88.27
18500;BME280;9379;52.134;11.576;2023-02-20T12:45:05;100868.31;;;12.10;88.79
18500;BME280;9379;52.134;11.576;2023-02-20T12:47:39;100874.16;;;12.04;88.28
18500;BME280;9379;52.134;11.576;2023-02-20T12:50:42;100878.38;;;11.96;89.08
18500;BME280;9379;52.134;11.576;2023-02-20T12:53:25;100890.63;;;11.78;89.06
18500;BME280;9379;52.134;11.576;2023-02-20T12:56:10;100888.59;;;11.82;89.33
18500;BME280;9379;52.134;11.576;2023-02-20T12:58:47;100886.75;;;11.82;89.27
18500;BME280;9379;52.134;11.576;2023-02-20T13:01:17;100887.13;;;11.78;89.87
18500;BME280;9379;52.134;11.576;2023-02-20T13:03:54;100880.13;;;11.77;89.82
18500;BME280;9379;52.134;11.576;2023-02-20T13:06:26;100883.03;;;11.64;90.11
18500;BME280;9379;52.134;11.576;2023-02-20T13:09:04;100900.53;;;11.66;90.02
18500;BME280;9379;52.134;11.576;2023-02-20T13:11:36;100895.59;;;11.83;89.93
18500;BME280;9379;52.134;11.576;2023-02-20T13:14:15;100901.06;;;11.81;90.51
18500;BME280;9379;52.134;11.576;2023-02-20T13:16:46;100912.97;;;11.87;89.81
18500;BME280;9379;52.134;11.576;2023-02-20T13:19:21;100911.66;;;11.72;90.06
18500;BME280;9379;52.134;11.576;2023-02-20T13:21:49;100901.38;;;11.67;90.55
18500;BME280;9379;52.134;11.576;2023-02-20T13:24:29;100902.69;;;11.73;90.30
18500;BME280;9379;52.134;11.576;2023-02-20T13:26:59;100917.31;;;11.88;89.74
18500;BME280;9379;52.134;11.576;2023-02-20T13:29:32;100912.84;;;11.88;89.67